Time;durP1;ratioP1;P1;durP2;ratioP2;P2;SDS_P1;SDS_P2;PMS_P1;PMS_P2;Temp;Humidity;BMP_temperature;BMP_pressure;BME280_temperature;BME280_humidity;BME280_pressure;Samples;Min_cycle;Max_cycle;Signal;HPM_P1;HPM_P2
2022/04/28 00:02:12;;;;;;;8.48;3.90;;;8.70;94.80;;;;;;5115627;28;20387;-73
2022/04/28 00:04:38;;;;;;;10.52;4.55;;;8.70;94.80;;;;;;5097676;28;20043;-73
2022/04/28 00:07:04;;;;;;;10.32;4.43;;;8.70;94.70;;;;;;5097118;28;20050;-73
2022/04/28 00:09:29;;;;;;;9.48;4.10;;;8.60;94.70;;;;;;5080692;28;20047;-73
2022/04/28 00:11:55;;;;;;;12.85;3.92;;;8.60;94.80;;;;;;5096832;28;20096;-73
2022/04/28 00:14:21;;;;;;;12.35;4.35;;;8.70;94.90;;;;;;5115758;28;20123;-73
2022/04/28 00:16:46;;;;;;;10.73;3.67;;;8.70;94.90;;;;;;5097780;28;20139;-73
2022/04/28 00:19:12;;;;;;;14.25;4.00;;;8.60;95.00;;;;;;5114191;28;20407;-72
2022/04/28 00:21:38;;;;;;;9.27;4.05;;;8.60;94.80;;;;;;5096479;28;20055;-73
2022/04/28 00:24:04;;;;;;;10.10;3.85;;;8.60;94.70;;;;;;5078960;28;20082;-72
2022/04/28 00:26:29;;;;;;;9.20;3.53;;;8.60;94.70;;;;;;5114449;28;20043;-72
2022/04/28 00:28:55;;;;;;;11.75;3.85;;;8.60;94.80;;;;;;5113306;28;20047;-73
2022/04/28 00:31:21;;;;;;;11.50;3.67;;;8.60;94.60;;;;;;5114023;28;20051;-73
2022/04/28 00:33:48;;;;;;;7.95;3.47;;;8.60;94.70;;;;;;5114430;28;20076;-72
2022/04/28 00:36:17;;;;;;;11.13;3.15;;;8.60;94.80;;;;;;5095611;28;20492;-73
2022/04/28 00:38:42;;;;;;;10.68;3.72;;;8.60;94.80;;;;;;5079467;28;20047;-72
2022/04/28 00:41:08;;;;;;;8.40;3.00;;;8.60;94.30;;;;;;5114017;28;20035;-73
2022/04/28 00:43:46;;;;;;;10.40;3.55;;;8.60;94.30;;;;;;5114076;28;20042;-73
2022/04/28 00:46:12;;;;;;;10.98;3.33;;;8.60;93.90;;;;;;5080647;28;20051;-73
2022/04/28 00:51:22;;;;;;;10.13;3.22;;;8.60;94.20;;;;;;5095527;28;20434;-73
2022/04/28 00:53:48;;;;;;;6.90;3.00;;;8.60;94.20;;;;;;5078905;28;20043;-73
2022/04/28 00:56:14;;;;;;;10.52;3.03;;;8.60;94.00;;;;;;5095309;28;20104;-73
2022/04/28 00:58:40;;;;;;;6.82;2.80;;;8.60;93.80;;;;;;5078890;28;20071;-73
2022/04/28 01:01:06;;;;;;;8.02;3.03;;;8.50;93.70;;;;;;5094572;28;20130;-73
2022/04/28 01:03:32;;;;;;;9.95;2.80;;;8.60;93.80;;;;;;5096073;28;20059;-73
2022/04/28 01:05:58;;;;;;;10.02;3.22;;;8.60;93.70;;;;;;5095452;28;20384;-72
2022/04/28 01:08:23;;;;;;;6.60;2.65;;;8.60;93.70;;;;;;5113791;28;20126;-72
2022/04/28 01:10:51;;;;;;;7.18;2.65;;;8.50;93.80;;;;;;5095525;28;20122;-73
2022/04/28 01:13:17;;;;;;;7.78;2.65;;;8.50;93.60;;;;;;5095283;28;20043;-72
2022/04/28 01:15:47;;;;;;;9.73;2.63;;;8.50;93.40;;;;;;5095525;28;20460;-73
2022/04/28 01:18:13;;;;;;;9.70;3.00;;;8.50;93.30;;;;;;5056591;28;1095578;-73
2022/04/28 01:20:39;;;;;;;7.35;2.67;;;8.50;93.60;;;;;;5079377;28;20040;-73
2022/04/28 01:23:05;;;;;;;10.35;2.95;;;8.50;93.00;;;;;;5095717;28;20047;-73
2022/04/28 01:25:30;;;;;;;9.88;2.92;;;8.50;93.00;;;;;;5096478;28;20415;-73
2022/04/28 01:27:57;;;;;;;6.40;2.90;;;8.50;93.00;;;;;;5095990;28;20043;-74
2022/04/28 01:30:22;;;;;;;10.55;2.60;;;8.50;93.10;;;;;;5113796;28;20048;-72
2022/04/28 01:32:48;;;;;;;8.85;2.60;;;8.50;93.10;;;;;;5078826;28;20062;-72
2022/04/28 01:35:14;;;;;;;6.05;2.85;;;8.50;93.00;;;;;;5095739;28;20062;-72
2022/04/28 01:37:40;;;;;;;10.30;2.95;;;8.40;93.00;;;;;;5096114;28;20530;-73
2022/04/28 01:40:11;;;;;;;8.88;2.95;;;8.50;93.00;;;;;;5078880;28;20047;-74
2022/04/28 01:42:45;;;;;;;;;;;8.40;93.10;;;;;;5080117;28;20085;-73
2022/04/28 01:45:10;;;;;;;11.68;2.90;;;8.40;93.10;;;;;;5113360;28;19927;-73
2022/04/28 01:47:36;;;;;;;5.68;2.58;;;8.40;93.30;;;;;;5078788;28;20467;-73
2022/04/28 01:50:03;;;;;;;8.05;3.17;;;8.40;92.50;;;;;;5095040;28;20134;-73
2022/04/28 01:55:12;;;;;;;10.25;2.97;;;8.40;92.30;;;;;;5113327;28;20081;-72
2022/04/28 01:57:39;;;;;;;10.63;2.60;;;8.40;92.20;;;;;;5095601;28;20039;-73
2022/04/28 02:00:06;;;;;;;8.00;3.22;;;8.40;92.20;;;;;;5094827;28;20542;-73
2022/04/28 02:02:31;;;;;;;8.90;2.63;;;8.40;92.10;;;;;;5095654;28;20048;-74
2022/04/28 02:05:00;;;;;;;10.43;3.55;;;8.40;92.30;;;;;;5095578;28;20054;-72
2022/04/28 02:07:26;;;;;;;8.63;3.33;;;8.40;92.10;;;;;;5113261;28;20395;-72
2022/04/28 02:09:52;;;;;;;11.15;3.95;;;8.40;91.70;;;;;;5078624;28;20135;-72
2022/04/28 02:12:17;;;;;;;11.57;3.28;;;8.40;91.60;;;;;;5094950;28;20122;-73
2022/04/28 02:14:43;;;;;;;11.90;3.88;;;8.40;91.70;;;;;;5113470;28;20122;-72
2022/04/28 02:17:09;;;;;;;9.20;2.78;;;8.50;92.10;;;;;;5113063;28;20090;-73
2022/04/28 02:19:37;;;;;;;9.45;3.20;;;8.50;92.40;;;;;;5113348;28;20507;-73
2022/04/28 02:22:03;;;;;;;9.02;3.03;;;8.50;92.30;;;;;;5113462;28;20147;-73
2022/04/28 02:24:29;;;;;;;11.00;3.40;;;8.50;92.40;;;;;;5078150;28;20075;-72
2022/04/28 02:26:54;;;;;;;10.10;3.13;;;8.50;92.30;;;;;;5095095;28;20039;-73
2022/04/28 02:29:21;;;;;;;10.00;3.90;;;8.50;92.40;;;;;;5094681;28;20101;-74
2022/04/28 02:31:46;;;;;;;11.38;2.92;;;8.50;92.50;;;;;;5078009;28;20048;-73
2022/04/28 02:34:12;;;;;;;10.52;3.50;;;8.50;92.50;;;;;;5112559;28;20494;-73
2022/04/28 02:36:38;;;;;;;8.50;3.30;;;8.50;92.60;;;;;;5113024;28;20051;-73
2022/04/28 02:39:03;;;;;;;13.43;3.25;;;8.50;92.70;;;;;;5078388;28;20050;-73
2022/04/28 02:41:29;;;;;;;7.32;2.90;;;8.60;93.20;;;;;;5094625;28;20070;-72
2022/04/28 02:43:55;;;;;;;9.60;3.20;;;8.50;93.20;;;;;;5112622;28;20055;-72
2022/04/28 02:46:20;;;;;;;10.63;3.30;;;8.60;93.10;;;;;;5077762;28;20079;-72
2022/04/28 02:48:46;;;;;;;9.40;3.40;;;8.50;93.20;;;;;;5061675;28;20400;-72
2022/04/28 02:51:12;;;;;;;7.82;3.13;;;8.50;93.40;;;;;;5112474;28;20036;-72
2022/04/28 02:53:38;;;;;;;6.22;3.13;;;8.50;93.50;;;;;;5094890;28;20040;-72
2022/04/28 02:56:03;;;;;;;9.88;3.92;;;8.60;93.40;;;;;;5112944;28;20043;-72
2022/04/28 02:58:29;;;;;;;12.13;3.33;;;8.50;93.20;;;;;;5112531;28;20083;-72
2022/04/28 03:00:55;;;;;;;10.95;3.90;;;8.50;93.10;;;;;;5112630;28;20040;-73
2022/04/28 03:03:21;;;;;;;8.32;3.25;;;8.50;93.10;;;;;;5094194;28;20426;-72
2022/04/28 03:11:15;;;;;;;11.75;3.72;;;8.50;93.10;;;;;;5096668;28;20579;-72
2022/04/28 03:13:41;;;;;;;9.32;3.50;;;8.50;93.20;;;;;;5112534;28;20135;-72
2022/04/28 03:16:06;;;;;;;13.20;3.80;;;8.50;93.50;;;;;;5112481;28;20047;-72
2022/04/28 03:18:33;;;;;;;8.98;3.42;;;8.50;93.50;;;;;;5094185;28;20052;-73
2022/04/28 03:20:59;;;;;;;7.45;3.08;;;8.50;93.90;;;;;;5061445;28;20051;-72
2022/04/28 03:23:24;;;;;;;9.30;3.42;;;8.50;93.90;;;;;;5093826;28;20126;-72
2022/04/28 03:25:51;;;;;;;9.93;3.13;;;8.50;94.10;;;;;;5112706;28;20051;-72
2022/04/28 03:28:18;;;;;;;11.30;3.42;;;8.50;94.50;;;;;;5094192;28;20100;-73
2022/04/28 03:30:44;;;;;;;7.10;3.17;;;8.50;94.60;;;;;;5094370;28;20051;-72
2022/04/28 03:33:10;;;;;;;9.02;3.08;;;8.40;94.80;;;;;;5094666;28;20066;-72
2022/04/28 03:35:36;;;;;;;7.10;3.38;;;8.50;94.90;;;;;;5077210;28;20514;-72
2022/04/28 03:38:01;;;;;;;9.43;3.47;;;8.40;94.90;;;;;;5077897;28;20043;-75
2022/04/28 03:40:27;;;;;;;9.40;3.13;;;8.40;95.00;;;;;;5112384;28;20047;-72
2022/04/28 03:42:53;;;;;;;9.65;3.30;;;8.40;95.20;;;;;;5094332;28;20043;-72
2022/04/28 03:45:18;;;;;;;10.15;3.08;;;8.40;95.20;;;;;;5093822;28;20040;-72
2022/04/28 03:47:44;;;;;;;10.60;3.50;;;8.40;95.30;;;;;;5094229;28;20411;-72
2022/04/28 03:50:10;;;;;;;6.55;3.00;;;8.40;95.10;;;;;;5112327;28;20060;-72
2022/04/28 03:52:35;;;;;;;10.35;3.15;;;8.40;95.30;;;;;;5111980;28;20255;-72
2022/04/28 03:55:01;;;;;;;11.52;3.90;;;8.40;94.80;;;;;;5114210;28;20405;-73
2022/04/28 03:57:27;;;;;;;10.32;3.38;;;8.40;94.70;;;;;;5080933;28;20101;-72
2022/04/28 03:59:54;;;;;;;8.32;3.38;;;8.40;94.80;;;;;;5097794;28;20082;-72
2022/04/28 04:02:20;;;;;;;7.78;3.40;;;8.40;94.90;;;;;;5115434;28;20055;-72
2022/04/28 04:04:46;;;;;;;9.48;3.50;;;8.40;95.00;;;;;;5098145;28;20089;-72
2022/04/28 04:07:11;;;;;;;10.10;2.95;;;8.40;95.10;;;;;;5115891;28;20391;-72
2022/04/28 04:09:37;;;;;;;10.23;3.13;;;8.40;95.40;;;;;;5097293;28;20040;-72
2022/04/28 04:12:04;;;;;;;11.25;3.10;;;8.40;95.60;;;;;;5097725;28;20043;-73
2022/04/28 04:14:31;;;;;;;8.75;3.53;;;8.40;95.70;;;;;;5097104;28;20063;-72
2022/04/28 04:16:57;;;;;;;12.77;3.67;;;8.40;95.80;;;;;;5097635;28;20445;-72
2022/04/28 04:19:23;;;;;;;9.02;3.40;;;8.40;95.90;;;;;;5093739;28;20067;-73
2022/04/28 04:21:49;;;;;;;9.48;3.53;;;8.40;95.90;;;;;;5094063;28;20396;-72
2022/04/28 04:24:15;;;;;;;8.85;3.45;;;8.40;95.90;;;;;;5077552;28;20048;-72
2022/04/28 04:26:41;;;;;;;8.90;3.53;;;8.40;95.80;;;;;;5093734;28;20408;-72
2022/04/28 04:29:07;;;;;;;9.15;3.15;;;8.40;95.70;;;;;;5094089;28;20044;-72
2022/04/28 04:34:16;;;;;;;10.70;3.75;;;8.40;95.50;;;;;;5094652;28;20136;-72
2022/04/28 04:36:42;;;;;;;10.40;3.55;;;8.30;95.80;;;;;;5093042;28;20081;-72
2022/04/28 04:39:08;;;;;;;8.38;3.40;;;8.40;95.90;;;;;;5094887;28;20053;-72
2022/04/28 04:41:33;;;;;;;8.50;3.55;;;8.50;96.10;;;;;;5093204;28;20047;-73
2022/04/28 04:43:59;;;;;;;6.38;3.30;;;8.50;96.30;;;;;;5076938;28;20056;-72
2022/04/28 04:46:24;;;;;;;5.85;3.60;;;8.40;96.30;;;;;;5093223;28;20384;-72
2022/04/28 04:48:50;;;;;;;15.00;3.95;;;8.50;96.60;;;;;;5093517;28;20051;-72
2022/04/28 04:51:16;;;;;;;9.63;3.55;;;8.50;96.50;;;;;;5094662;28;20047;-71
2022/04/28 04:53:41;;;;;;;9.63;3.60;;;8.50;96.50;;;;;;5094275;28;20058;-72
2022/04/28 04:56:07;;;;;;;12.07;4.13;;;8.50;96.90;;;;;;5094651;28;20392;-72
2022/04/28 04:58:32;;;;;;;9.45;3.72;;;8.60;97.00;;;;;;5076301;28;20055;-73
2022/04/28 05:00:58;;;;;;;7.88;3.70;;;8.50;96.80;;;;;;5094245;28;20043;-73
2022/04/28 05:03:24;;;;;;;9.85;4.03;;;8.50;96.80;;;;;;5093355;28;20056;-72
2022/04/28 05:05:51;;;;;;;10.30;4.05;;;8.50;96.80;;;;;;5091532;28;20492;-73
2022/04/28 05:08:17;;;;;;;9.35;3.38;;;8.60;97.00;;;;;;5094046;28;20048;-73
2022/04/28 05:10:43;;;;;;;8.50;3.97;;;8.60;97.20;;;;;;5093757;28;20047;-73
2022/04/28 05:13:08;;;;;;;7.97;4.28;;;8.60;97.50;;;;;;5094247;28;20046;-73
2022/04/28 05:15:34;;;;;;;11.55;3.97;;;8.60;97.80;;;;;;5092838;28;20461;-73
2022/04/28 05:18:00;;;;;;;13.55;4.13;;;8.60;98.20;;;;;;5092869;28;20051;-74
2022/04/28 05:20:25;;;;;;;13.93;4.13;;;8.60;98.50;;;;;;5093629;28;20083;-73
2022/04/28 05:22:51;;;;;;;11.00;4.47;;;8.60;98.70;;;;;;5093578;28;20044;-72
2022/04/28 05:25:17;;;;;;;17.35;4.65;;;8.60;98.40;;;;;;5093000;28;20055;-73
2022/04/28 05:27:42;;;;;;;11.40;4.90;;;8.60;98.10;;;;;;5092331;28;20044;-73
2022/04/28 05:30:09;;;;;;;12.63;5.10;;;8.70;97.80;;;;;;5094487;28;20038;-73
2022/04/28 05:32:35;;;;;;;10.82;4.70;;;8.70;97.50;;;;;;5093743;28;20055;-73
2022/04/28 05:35:00;;;;;;;9.80;4.93;;;8.70;97.30;;;;;;5075673;28;20048;-73
2022/04/28 05:37:26;;;;;;;9.65;4.97;;;8.70;97.10;;;;;;5092469;28;20131;-73
2022/04/28 05:39:51;;;;;;;9.10;4.38;;;8.70;97.00;;;;;;5075728;28;20159;-73
2022/04/28 05:42:17;;;;;;;8.52;4.22;;;8.80;97.00;;;;;;5092779;28;20051;-73
2022/04/28 05:47:27;;;;;;;11.65;4.60;;;8.70;97.20;;;;;;5093569;28;20063;-73
2022/04/28 05:49:53;;;;;;;10.38;4.72;;;8.80;97.30;;;;;;5075265;28;20480;-73
2022/04/28 05:52:19;;;;;;;10.93;4.57;;;8.80;97.20;;;;;;5093599;28;20087;-73
2022/04/28 05:54:44;;;;;;;12.65;4.70;;;8.80;97.30;;;;;;5093042;28;20083;-72
2022/04/28 05:57:11;;;;;;;9.23;4.35;;;8.90;97.30;;;;;;5075403;28;20043;-72
2022/04/28 05:59:37;;;;;;;14.25;4.60;;;8.90;97.40;;;;;;5091515;28;20051;-73
2022/04/28 06:02:03;;;;;;;11.93;4.80;;;8.90;97.40;;;;;;5091832;28;20123;-73
2022/04/28 06:04:29;;;;;;;8.70;4.03;;;9.00;97.50;;;;;;5092012;28;20043;-73
2022/04/28 06:06:54;;;;;;;9.73;3.90;;;8.90;97.60;;;;;;5091617;28;20058;-72
2022/04/28 06:09:20;;;;;;;9.80;3.70;;;9.00;97.80;;;;;;5093522;28;20059;-73
2022/04/28 06:11:46;;;;;;;7.13;3.45;;;9.10;98.00;;;;;;5092896;28;20055;-72
2022/04/28 06:14:11;;;;;;;11.45;3.53;;;9.10;98.30;;;;;;5093109;28;20044;-73
2022/04/28 06:16:37;;;;;;;11.60;3.53;;;9.20;98.50;;;;;;5091376;28;20096;-73
2022/04/28 06:19:03;;;;;;;11.35;3.30;;;9.30;98.70;;;;;;5107171;28;20087;-73
2022/04/28 06:21:28;;;;;;;6.82;2.92;;;9.40;98.70;;;;;;5078529;28;20055;-73
2022/04/28 06:23:54;;;;;;;10.40;2.90;;;9.40;98.80;;;;;;5094647;28;20048;-73
2022/04/28 06:26:19;;;;;;;12.32;2.78;;;9.40;98.80;;;;;;5113603;28;20051;-73
2022/04/28 06:28:45;;;;;;;10.35;2.50;;;9.50;98.70;;;;;;5094975;28;20066;-73
2022/04/28 06:31:11;;;;;;;8.20;2.70;;;9.50;98.70;;;;;;5112540;28;20040;-73
2022/04/28 06:33:40;;;;;;;9.55;2.95;;;9.50;98.70;;;;;;5112685;28;20044;-73
2022/04/28 06:36:06;;;;;;;10.95;2.60;;;9.50;98.50;;;;;;5113286;28;20051;-73
2022/04/28 06:38:31;;;;;;;11.45;2.45;;;9.50;98.30;;;;;;5113267;28;20098;-73
2022/04/28 06:40:57;;;;;;;9.25;3.03;;;9.50;98.20;;;;;;5095028;28;20338;-72
2022/04/28 06:43:23;;;;;;;9.52;2.70;;;9.50;98.50;;;;;;5113355;28;20043;-73
2022/04/28 06:48:32;;;;;;;9.82;2.60;;;9.60;98.00;;;;;;5112903;28;20047;-73
2022/04/28 06:50:58;;;;;;;9.80;2.70;;;9.60;97.70;;;;;;5112419;28;20355;-73
2022/04/28 06:53:24;;;;;;;6.72;2.10;;;9.60;97.50;;;;;;5112874;28;20050;-73
2022/04/28 06:55:49;;;;;;;6.28;1.98;;;9.60;97.00;;;;;;5077902;28;20445;-73
2022/04/28 06:58:15;;;;;;;8.15;2.60;;;9.70;96.50;;;;;;5112887;28;20079;-73
2022/04/28 07:00:41;;;;;;;6.70;2.15;;;9.70;96.50;;;;;;5112289;28;20384;-75
2022/04/28 07:03:06;;;;;;;10.80;1.92;;;9.80;96.70;;;;;;5094615;28;20036;-73
2022/04/28 07:05:33;;;;;;;5.55;1.67;;;9.80;96.60;;;;;;5095057;28;20055;-74
2022/04/28 07:07:58;;;;;;;6.25;2.08;;;9.80;96.40;;;;;;5094687;28;20433;-73
2022/04/28 07:10:24;;;;;;;7.93;2.20;;;9.80;96.40;;;;;;5078476;28;20052;-73
2022/04/28 07:12:50;;;;;;;8.40;2.40;;;9.80;96.40;;;;;;5094513;28;20044;-73
2022/04/28 07:15:16;;;;;;;8.30;1.95;;;9.90;96.80;;;;;;5112815;28;20043;-73
2022/04/28 07:17:41;;;;;;;13.02;2.70;;;9.80;96.70;;;;;;5112998;28;20059;-73
2022/04/28 07:20:08;;;;;;;8.95;2.45;;;9.80;96.70;;;;;;5111992;28;20062;-73
2022/04/28 07:22:34;;;;;;;8.60;2.47;;;9.70;96.70;;;;;;5077793;28;20048;-74
2022/04/28 07:24:59;;;;;;;5.60;2.13;;;9.70;97.00;;;;;;5094233;28;20050;-74
2022/04/28 07:27:25;;;;;;;7.55;2.38;;;9.60;97.00;;;;;;5094365;28;20090;-74
2022/04/28 07:29:51;;;;;;;9.35;2.17;;;9.60;97.20;;;;;;5113802;28;20048;-80
2022/04/28 07:32:16;;;;;;;8.65;2.42;;;9.60;97.20;;;;;;5081626;28;20372;-74
2022/04/28 07:34:42;;;;;;;7.82;2.40;;;9.60;97.20;;;;;;5098365;28;20109;-73
2022/04/28 07:37:07;;;;;;;6.60;2.22;;;9.70;96.90;;;;;;5115911;28;20045;-74
2022/04/28 07:39:33;;;;;;;6.05;2.15;;;9.80;96.70;;;;;;5098587;28;20083;-75
2022/04/28 07:41:59;;;;;;;9.13;2.28;;;9.90;96.50;;;;;;5098076;28;20039;-73
2022/04/28 07:44:24;;;;;;;9.65;2.13;;;10.10;96.50;;;;;;5116224;28;20040;-74
2022/04/28 07:46:50;;;;;;;6.10;2.00;;;10.20;96.20;;;;;;5098235;28;20391;-74
2022/04/28 07:49:16;;;;;;;10.60;2.72;;;10.30;95.80;;;;;;5098351;28;20050;-74
2022/04/28 07:51:41;;;;;;;9.07;2.97;;;10.40;95.30;;;;;;5098280;28;20039;-74
2022/04/28 07:54:07;;;;;;;11.80;2.58;;;10.50;95.00;;;;;;5081136;28;20039;-73
2022/04/28 07:56:33;;;;;;;11.93;3.05;;;10.60;95.00;;;;;;5116146;28;20482;-74
2022/04/28 07:58:59;;;;;;;7.00;2.40;;;10.70;95.20;;;;;;5097750;28;20039;-74
2022/04/28 08:01:24;;;;;;;6.95;2.40;;;10.70;94.90;;;;;;5115587;28;20044;-74
2022/04/28 08:03:50;;;;;;;7.22;2.50;;;10.80;94.60;;;;;;5115412;28;20047;-75
2022/04/28 08:06:16;;;;;;;6.35;2.38;;;10.90;93.90;;;;;;5097734;28;20106;-74
2022/04/28 08:08:42;;;;;;;8.27;2.45;;;11.00;93.50;;;;;;5116016;28;20047;-76
2022/04/28 08:11:08;;;;;;;8.50;2.40;;;11.20;92.80;;;;;;5097637;28;20035;-74
2022/04/28 08:13:34;;;;;;;5.72;1.98;;;11.20;92.00;;;;;;5098054;28;20433;-75
2022/04/28 08:16:01;;;;;;;8.18;2.50;;;11.20;91.80;;;;;;5115329;28;20503;-74
2022/04/28 08:18:29;;;;;;;6.05;1.50;;;11.20;91.10;;;;;;5080426;28;20088;-74
2022/04/28 08:20:55;;;;;;;6.70;2.00;;;11.20;90.60;;;;;;5097119;28;20043;-73
2022/04/28 08:23:20;;;;;;;5.60;1.48;;;11.20;90.30;;;;;;5097538;28;20039;-72
2022/04/28 08:25:46;;;;;;;5.38;1.63;;;11.10;90.10;;;;;;5097987;28;20047;-72
2022/04/28 08:28:12;;;;;;;8.25;1.98;;;11.20;89.10;;;;;;5097091;28;20760;-73
2022/04/28 08:30:38;;;;;;;7.80;1.52;;;11.20;89.50;;;;;;5097106;28;20054;-72
2022/04/28 08:33:05;;;;;;;7.50;1.80;;;11.30;87.70;;;;;;5114742;28;20050;-72
2022/04/28 08:35:30;;;;;;;5.63;1.50;;;11.40;88.00;;;;;;5115584;28;20069;-72
2022/04/28 08:37:56;;;;;;;7.90;1.60;;;11.50;87.40;;;;;;5096724;28;20056;-73
2022/04/28 08:40:25;;;;;;;6.95;1.40;;;11.50;86.60;;;;;;5080288;28;20381;-72
2022/04/28 08:42:51;;;;;;;8.93;1.80;;;11.50;86.30;;;;;;5097188;28;20128;-73
2022/04/28 08:45:25;;;;;;;8.18;2.05;;;11.50;86.00;;;;;;5079724;28;20131;-73
2022/04/28 08:47:51;;;;;;;10.43;1.70;;;11.50;85.90;;;;;;5097361;28;20403;-74
2022/04/28 08:50:17;;;;;;;8.40;1.98;;;11.40;85.40;;;;;;5096291;28;20043;-75
2022/04/28 08:52:42;;;;;;;5.68;1.70;;;11.30;86.40;;;;;;5096627;28;20039;-74
2022/04/28 08:55:08;;;;;;;8.43;1.83;;;11.30;87.50;;;;;;5079552;28;20062;-74
2022/04/28 08:57:34;;;;;;;6.85;2.03;;;11.30;86.70;;;;;;5080157;28;20491;-74
2022/04/28 09:00:00;;;;;;;7.63;2.10;;;11.30;86.10;;;;;;5079504;28;20402;-74
2022/04/28 09:02:31;;;;;;;8.68;1.92;;;11.30;85.80;;;;;;5097051;28;20105;-73
2022/04/28 09:05:05;;;;;;;7.43;1.70;;;11.40;85.20;;;;;;5097012;28;20051;-78
2022/04/28 09:07:33;;;;;;;9.88;2.28;;;11.50;85.80;;;;;;5079562;28;20051;-74
2022/04/28 09:09:59;;;;;;;5.63;1.70;;;11.50;85.80;;;;;;5096224;28;20086;-73
2022/04/28 09:12:24;;;;;;;6.47;1.83;;;11.50;85.30;;;;;;5114513;28;20483;-72
2022/04/28 09:14:51;;;;;;;9.35;1.88;;;11.50;85.80;;;;;;5096697;28;20130;-72
2022/04/28 09:17:16;;;;;;;9.90;2.20;;;11.50;85.00;;;;;;5096310;28;20054;-72
2022/04/28 09:19:42;;;;;;;6.50;1.67;;;11.40;84.80;;;;;;5114293;28;20051;-72
2022/04/28 09:22:13;;;;;;;7.05;1.80;;;11.40;84.70;;;;;;5096227;28;20115;-72
2022/04/28 09:24:40;;;;;;;;;;;11.50;85.00;;;;;;5097201;28;20180;-72
2022/04/28 09:27:06;;;;;;;6.32;1.73;;;11.30;83.30;;;;;;5114261;28;19963;-72
2022/04/28 09:29:36;;;;;;;8.07;1.90;;;11.40;86.30;;;;;;5096003;28;20058;-72
2022/04/28 09:32:06;;;;;;;8.38;1.83;;;11.40;85.60;;;;;;5096352;28;20051;-73
2022/04/28 09:34:31;;;;;;;7.90;2.00;;;11.50;86.30;;;;;;5079740;28;20047;-72
2022/04/28 09:36:58;;;;;;;9.57;2.17;;;11.50;85.20;;;;;;5095880;28;20052;-72
2022/04/28 09:44:56;;;;;;;6.90;1.45;;;11.70;83.30;;;;;;5081816;28;20500;-72
2022/04/28 09:47:22;;;;;;;7.93;1.73;;;12.00;83.80;;;;;;5095640;28;20047;-72
2022/04/28 09:49:55;;;;;;;7.95;2.08;;;12.10;82.60;;;;;;5114193;28;20054;-72
2022/04/28 09:52:24;;;;;;;8.05;2.33;;;12.20;82.50;;;;;;5078855;28;20360;-72
2022/04/28 09:54:51;;;;;;;11.57;2.28;;;12.20;82.90;;;;;;5113732;28;20082;-73
2022/04/28 09:57:20;;;;;;;10.10;3.20;;;12.20;82.90;;;;;;5095005;28;20054;-73
2022/04/28 09:59:47;;;;;;;10.38;2.88;;;12.20;83.80;;;;;;5096306;28;20051;-72
2022/04/28 10:02:17;;;;;;;8.63;2.67;;;12.20;82.60;;;;;;5078670;28;20061;-72
2022/04/28 10:04:43;;;;;;;8.68;2.60;;;12.10;82.40;;;;;;5113795;28;20093;-72
2022/04/28 10:07:09;;;;;;;9.32;2.65;;;12.10;83.10;;;;;;5078330;28;20135;-73
2022/04/28 10:09:38;;;;;;;7.53;2.63;;;12.10;83.50;;;;;;5095903;28;20104;-73
2022/04/28 10:12:05;;;;;;;7.00;2.90;;;12.20;83.00;;;;;;5095471;28;20044;-72
2022/04/28 10:14:31;;;;;;;10.13;2.88;;;12.20;83.20;;;;;;5094838;28;20156;-73
2022/04/28 10:16:57;;;;;;;8.85;2.70;;;12.20;82.60;;;;;;5095469;28;20444;-72
2022/04/28 10:19:24;;;;;;;9.70;3.15;;;12.40;82.60;;;;;;5094595;28;20063;-72
2022/04/28 10:22:14;;;;;;;6.40;2.60;;;12.40;83.00;;;;;;5061760;28;20476;-72
2022/04/28 10:33:03;;;;;;;7.63;2.88;;;12.60;81.80;;;;;;5113567;28;20051;-72
2022/04/28 10:35:48;;;;;;;8.98;2.88;;;12.70;82.60;;;;;;5095084;28;20100;-72
2022/04/28 10:38:30;;;;;;;9.98;2.67;;;12.80;81.70;;;;;;5112912;28;20048;-72
2022/04/28 10:40:58;;;;;;;9.55;2.90;;;12.70;80.90;;;;;;5112838;28;20036;-71
2022/04/28 10:43:33;;;;;;;8.07;2.90;;;12.70;81.40;;;;;;5094544;28;20096;-73
2022/04/28 10:46:22;;;;;;;9.63;2.70;;;12.80;81.40;;;;;;5113056;28;20043;-72
2022/04/28 10:48:52;;;;;;;10.57;3.13;;;12.90;80.40;;;;;;5112366;28;20092;-72
2022/04/28 10:51:29;;;;;;;9.07;2.90;;;12.90;80.40;;;;;;5112332;28;20083;-72
2022/04/28 10:54:19;;;;;;;9.27;3.10;;;12.90;80.80;;;;;;5096513;28;20391;-72
2022/04/28 10:56:52;;;;;;;8.93;3.20;;;12.90;79.70;;;;;;5094818;28;20055;-72
2022/04/28 10:59:32;;;;;;;8.10;2.28;;;12.80;79.40;;;;;;5112341;28;20048;-72
2022/04/28 11:02:10;;;;;;;9.13;2.90;;;12.80;79.30;;;;;;5113112;28;20050;-72
2022/04/28 11:04:35;;;;;;;10.05;2.97;;;12.80;79.90;;;;;;5099383;28;20050;-72
2022/04/28 11:07:05;;;;;;;10.40;2.88;;;12.70;79.80;;;;;;5098846;28;20043;-72
2022/04/28 11:09:32;;;;;;;11.88;2.92;;;12.70;80.90;;;;;;5116944;28;20052;-72
2022/04/28 11:12:13;;;;;;;13.25;2.88;;;12.70;81.50;;;;;;5099259;28;20043;-72
2022/04/28 11:14:48;;;;;;;10.80;3.15;;;12.80;81.40;;;;;;5116688;28;20389;-72
2022/04/28 11:17:15;;;;;;;8.57;2.95;;;12.80;81.60;;;;;;5117165;28;20051;-72
2022/04/28 11:19:41;;;;;;;10.45;3.13;;;12.80;81.30;;;;;;5098763;28;20105;-72
2022/04/28 11:22:07;;;;;;;10.75;3.50;;;12.80;81.20;;;;;;5098966;28;20043;-72
2022/04/28 11:24:33;;;;;;;15.48;3.70;;;12.80;81.20;;;;;;5098564;28;20055;-73
2022/04/28 11:26:59;;;;;;;11.38;3.10;;;12.90;81.20;;;;;;5099054;28;20043;-72
2022/04/28 11:29:26;;;;;;;8.95;3.00;;;12.90;80.60;;;;;;5098138;28;20126;-73
2022/04/28 11:31:53;;;;;;;9.20;3.05;;;12.90;80.00;;;;;;5081698;28;20395;-72
2022/04/28 11:34:19;;;;;;;6.93;3.08;;;12.90;79.60;;;;;;5098119;28;20124;-72
2022/04/28 11:36:45;;;;;;;10.35;3.30;;;12.90;79.50;;;;;;5082096;28;20554;-72
2022/04/28 11:39:10;;;;;;;13.05;3.20;;;12.90;80.30;;;;;;5116830;28;20128;-72
2022/04/28 11:41:40;;;;;;;9.15;2.90;;;12.90;81.20;;;;;;5097639;28;20043;-72
2022/04/28 11:44:07;;;;;;;9.32;2.55;;;12.90;80.60;;;;;;5098429;28;20164;-72
2022/04/28 11:46:45;;;;;;;7.95;2.50;;;12.90;80.70;;;;;;5116094;28;20544;-72
2022/04/28 11:49:10;;;;;;;13.27;2.88;;;12.90;80.60;;;;;;5116609;28;20068;-72
2022/04/28 11:51:36;;;;;;;8.85;2.47;;;12.90;81.70;;;;;;5115600;28;20122;-72
2022/04/28 11:54:03;;;;;;;10.40;2.70;;;12.90;81.10;;;;;;5116245;28;20035;-72
2022/04/28 11:56:31;;;;;;;7.50;2.40;;;13.00;80.70;;;;;;5097984;28;20421;-72
2022/04/28 11:58:58;;;;;;;9.50;2.80;;;12.90;79.30;;;;;;5098528;28;20105;-72
2022/04/28 12:01:25;;;;;;;7.03;2.50;;;12.90;79.40;;;;;;5097811;28;20048;-72
2022/04/28 12:03:55;;;;;;;10.45;3.10;;;12.90;80.20;;;;;;5098297;28;20047;-72
2022/04/28 12:06:22;;;;;;;9.68;2.65;;;12.90;79.60;;;;;;5098018;28;20064;-72
2022/04/28 12:08:55;;;;;;;8.38;2.35;;;13.00;80.50;;;;;;5098236;28;20391;-72
2022/04/28 12:14:25;;;;;;;7.20;2.38;;;13.10;79.30;;;;;;5100688;28;20408;-73
2022/04/28 12:20:02;;;;;;;9.45;2.30;;;13.20;80.10;;;;;;5115076;28;20104;-75
2022/04/28 12:22:37;;;;;;;10.00;2.53;;;13.20;79.20;;;;;;5097646;28;20090;-76
2022/04/28 12:25:10;;;;;;;8.43;2.35;;;13.10;79.30;;;;;;5098124;28;20050;-74
2022/04/28 12:27:44;;;;;;;6.18;2.30;;;13.20;79.10;;;;;;5097238;28;20098;-74
2022/04/28 12:30:12;;;;;;;9.57;2.50;;;13.20;80.00;;;;;;5098695;28;20407;-75
2022/04/28 12:32:46;;;;;;;8.75;2.75;;;13.20;79.70;;;;;;5097126;28;20039;-75
2022/04/28 12:35:30;;;;;;;12.13;2.60;;;13.20;80.40;;;;;;5115753;28;20055;-75
2022/04/28 12:38:07;;;;;;;12.07;2.63;;;13.20;80.00;;;;;;5098542;28;20054;-75
2022/04/28 12:40:40;;;;;;;10.95;2.60;;;13.20;80.40;;;;;;5097164;28;20051;-75
2022/04/28 12:43:06;;;;;;;9.20;2.55;;;13.20;79.60;;;;;;5097435;28;20395;-76
2022/04/28 12:45:45;;;;;;;15.00;2.83;;;13.20;80.20;;;;;;5096817;28;20055;-76
2022/04/28 12:48:27;;;;;;;10.00;2.72;;;13.20;79.50;;;;;;5097866;28;20432;-76
2022/04/28 12:51:14;;;;;;;10.90;2.90;;;13.10;78.10;;;;;;5080264;28;20106;-74
2022/04/28 12:53:41;;;;;;;9.35;2.65;;;13.10;78.00;;;;;;5096387;28;20522;-72
2022/04/28 12:56:12;;;;;;;6.38;2.25;;;13.10;78.80;;;;;;5115302;28;20476;-72
2022/04/28 12:58:38;;;;;;;;;;;13.10;79.00;;;;;;5063668;28;20079;-73
2022/04/28 13:01:04;;;;;;;11.20;2.45;;;13.00;77.10;;;;;;5079619;28;20010;-73
2022/04/28 13:03:29;;;;;;;8.27;2.40;;;13.00;79.60;;;;;;5096824;28;20139;-77
2022/04/28 13:05:56;;;;;;;8.55;2.05;;;13.10;80.60;;;;;;5096405;28;20066;-73
2022/04/28 13:08:21;;;;;;;9.63;2.35;;;13.20;79.20;;;;;;5096370;28;20083;-73
2022/04/28 13:10:47;;;;;;;13.13;2.40;;;13.20;78.30;;;;;;5096107;28;20094;-73
2022/04/28 13:13:12;;;;;;;11.23;3.03;;;13.10;78.40;;;;;;5096342;28;20047;-73
2022/04/28 13:15:38;;;;;;;9.10;2.40;;;13.10;78.40;;;;;;5095922;28;20122;-73
2022/04/28 13:18:04;;;;;;;11.65;2.70;;;13.10;78.40;;;;;;5113980;28;20058;-73
2022/04/28 13:20:31;;;;;;;8.32;2.70;;;13.10;78.60;;;;;;5096349;28;20051;-73
2022/04/28 13:22:57;;;;;;;6.25;2.47;;;13.00;78.50;;;;;;5096306;28;20487;-73
2022/04/28 13:25:22;;;;;;;7.93;2.30;;;13.00;78.70;;;;;;5096572;28;20126;-73
2022/04/28 13:27:48;;;;;;;7.45;2.17;;;13.00;78.90;;;;;;5113053;28;20047;-73
2022/04/28 13:30:14;;;;;;;9.85;2.45;;;13.00;80.10;;;;;;5096372;28;20097;-73